Portada
METAR-TAF:

METAR-TAF

Aeropuertos :

Aeropuerto Internacional Amata Kabua

Majuro, Islas Marshall

latitud: 07-04N, longitud: 171-17E, altitud: 2 m

Observación

El informe se hizo hace 10 horas y 47 minutos, a las 06:55 UTC
Viento 13 kt del noreste
Temperatura 29°C
Humedad 79%
Presión 1008 hPa
Visibilidad: 24.1 km
Escasas nubes a una altura de 1500 ft
Nubes dispersas a una altura de 5000 ft
Cielo nuboso a una altura de 30000 ft

METAR: PKMJ 110655Z 05013KT 15SM FEW015 SCT050 BKN300 29/25 A2978 RMK LAST

Hora: 05:42 (17:42 UTC)

Pronóstico

El informe se hizo hace 14 minutos, a las 17:28 UTC
Pronóstico válido del 11 a las 18 UTC al 12 a las 18 UTC
Viento 14 kt del este-noreste
Visibilidad: 10 km
Escasas nubes a una altura de 1500 ft
Nubes dispersas a una altura de 5000 ft

TAF: PKMJ 111728Z 1118/1218 06014KT P6SM FEW015 SCT050

Observaciones y pronósticos meteorológicos de más de 4000 aeropuertos (mensajes METAR y TAF).

Los puntos amarillos y rojos representan las estaciones disponibles.

Ponga el ratón en el punto deseado para ver el nombre de la estación.

Haga clic para ver las observaciones y los pronósticos meteorológicos.

Para cambiar el mapa : haga clic en los botones verdes con una cruz de color negro para hacer un zoom, en el botón verde con un guión para alejar o en las flechas verdes para mapas adyacentes.


METAR-TAF: